createdAt,value
2023-01-17T00:09:58.837Z,62.30
2023-01-17T00:25:19.509Z,58.60
2023-01-17T00:40:21.375Z,56.47
2023-01-17T00:55:41.726Z,53.85
2023-01-17T01:11:03.994Z,55.80
2023-01-17T01:26:24.446Z,61.30
2023-01-17T01:41:26.696Z,52.05
2023-01-17T01:56:29.712Z,20.38
2023-01-17T02:11:32.945Z,14.80
2023-01-17T02:26:43.922Z,9.43
2023-01-17T02:41:51.671Z,10.10
2023-01-17T02:56:59.493Z,9.73
2023-01-17T03:12:03.751Z,10.10
2023-01-17T03:27:05.695Z,7.85
2023-01-17T03:42:07.797Z,6.32
2023-01-17T03:57:10.089Z,13.07
2023-01-17T04:12:12.228Z,14.05
2023-01-17T04:27:14.474Z,11.23
2023-01-17T04:42:16.541Z,9.93
2023-01-17T04:57:19.190Z,6.40
2023-01-17T05:12:21.216Z,5.00
2023-01-17T05:27:23.145Z,5.75
2023-01-17T05:42:25.091Z,6.30
2023-01-17T05:57:27.072Z,6.32
2023-01-17T06:12:29.199Z,6.07
2023-01-17T06:27:31.170Z,3.45
2023-01-17T06:42:33.110Z,2.85
2023-01-17T06:57:35.105Z,3.17
2023-01-17T07:12:37.042Z,2.47
2023-01-17T07:27:38.974Z,4.32
2023-01-17T07:42:40.982Z,4.05
2023-01-17T07:57:43.058Z,4.50
2023-01-17T08:12:49.644Z,7.43
2023-01-17T08:27:56.317Z,6.57
2023-01-17T08:43:00.428Z,5.80
2023-01-17T08:58:03.363Z,5.38
2023-01-17T09:13:08.179Z,6.63
2023-01-17T09:28:11.215Z,4.93
2023-01-17T09:43:48.411Z,3.20
2023-01-17T09:59:35.407Z,2.63
2023-01-17T10:14:40.224Z,4.43
2023-01-17T10:29:47.967Z,3.45
2023-01-17T10:45:15.518Z,3.33
2023-01-17T11:00:50.990Z,2.50
2023-01-17T11:16:21.441Z,4.97
2023-01-17T11:31:25.990Z,4.97
2023-01-17T11:46:29.776Z,3.65
2023-01-17T12:01:50.876Z,3.90
2023-01-17T12:16:58.548Z,2.00
2023-01-17T12:32:27.041Z,3.30
2023-01-17T13:02:49.282Z,3.05
2023-01-17T13:18:15.756Z,2.45
2023-01-17T13:33:31.919Z,2.15
2023-01-17T13:48:38.448Z,2.75
2023-01-17T14:03:49.756Z,3.80
2023-01-17T14:18:53.272Z,4.45
2023-01-17T14:33:55.330Z,3.13
2023-01-17T14:49:06.130Z,3.20
2023-01-17T15:04:25.403Z,5.22
2023-01-17T15:19:27.650Z,4.78
2023-01-17T15:34:34.489Z,7.57
2023-01-17T15:49:36.980Z,4.70
2023-01-17T16:04:44.535Z,7.45
2023-01-17T16:19:46.629Z,4.97
2023-01-17T16:34:48.605Z,6.65
2023-01-17T16:49:50.896Z,12.77
2023-01-17T17:04:53.332Z,15.55
2023-01-17T17:19:55.598Z,33.35
2023-01-17T17:34:57.582Z,23.73
2023-01-17T17:49:59.545Z,39.17
2023-01-17T18:05:02.482Z,49.10
2023-01-17T18:20:07.382Z,79.25
2023-01-17T18:35:09.903Z,44.97
2023-01-17T18:50:11.865Z,59.38
2023-01-17T19:05:14.926Z,63.88
2023-01-17T19:20:17.059Z,112.85
2023-01-17T19:35:20.798Z,122.85
2023-01-17T19:50:24.494Z,98.85
2023-01-17T20:05:26.482Z,96.78
2023-01-17T20:20:32.516Z,102.25
2023-01-17T20:35:34.495Z,84.47
2023-01-17T20:50:37.009Z,82.47
2023-01-17T21:05:38.940Z,83.53
2023-01-17T21:20:41.148Z,71.50
2023-01-17T21:35:43.098Z,72.38
2023-01-17T21:50:45.384Z,54.35
2023-01-17T22:05:47.330Z,48.88
2023-01-17T22:20:49.686Z,51.70
2023-01-17T22:36:00.859Z,64.25
2023-01-17T22:51:04.262Z,47.13
2023-01-17T23:06:16.812Z,60.97
2023-01-17T23:21:18.734Z,49.00
2023-01-17T23:36:20.630Z,50.67
2023-01-17T23:51:22.854Z,59.00
